SPHI/CIX METAR and TAF weather

Enter ICAO airport designator
Station Type Date Time Source
SPHI METAR 2020/07/10 19:00 UTC NOAA

SPHI 101900Z 19014KT CAVOK 22/14 Q1014 RMK BIRD HAZARD RWY 19/01 PP000


Station Type Date Time Source
SPHI Decoded METAR 2020/07/10 19:00 UTC NOAA

Chiclayo, Peru (SPHI) 06-47S 079-50W 34M
Jul 10, 2020 - 03:00 PM EDT / 2020.07.10 1900 UTC
Wind: from the S (190 degrees) at 16 MPH (14 KT):0
Visibility: greater than 7 mile(s):0
Temperature: 71 F (22 C)
Dew Point: 57 F (14 C)
Relative Humidity: 60%
Pressure (altimeter): 29.94 in. Hg (1014 hPa)
ob: SPHI 101900Z 19014KT CAVOK 22/14 Q1014 RMK BIRD HAZARD RWY 19/01 PP000
cycle: 19

Station Type Date Time Source
SPHI TAF 2020/07/10 18:33 UTC NOAA

TAF SPHI 101630Z 1018/1118 19016KT CAVOK TX22/1019Z TN16/1111Z
BECMG 1102/1105 18008KT
TEMPO 1112/1114 BKN010

Example: see airport list